createdAt,value
2022-10-07T00:01:49.303Z,11.50
2022-10-07T00:04:19.730Z,11.60
2022-10-07T00:06:48.276Z,11.60
2022-10-07T00:09:16.726Z,11.60
2022-10-07T00:11:45.315Z,11.20
2022-10-07T00:14:13.769Z,11.60
2022-10-07T00:19:14.938Z,11.60
2022-10-07T00:21:44.720Z,12.00
2022-10-07T00:24:13.198Z,11.70
2022-10-07T00:26:41.575Z,11.70
2022-10-07T00:29:10.120Z,11.80
2022-10-07T00:31:38.911Z,11.70
2022-10-07T00:34:07.329Z,11.70
2022-10-07T00:36:38.981Z,11.60
2022-10-07T00:39:12.644Z,11.60
2022-10-07T00:44:46.246Z,11.60
2022-10-07T00:47:25.197Z,11.60
2022-10-07T00:49:59.598Z,11.60
2022-10-07T00:52:33.197Z,11.50
2022-10-07T00:55:10.585Z,11.50
2022-10-07T00:57:41.179Z,11.50
2022-10-07T01:00:11.972Z,11.50
2022-10-07T01:02:41.897Z,11.50
2022-10-07T01:05:14.234Z,11.50
2022-10-07T01:07:47.302Z,11.50
2022-10-07T01:10:20.546Z,11.50
2022-10-07T01:13:05.555Z,11.50
2022-10-07T01:15:40.630Z,11.50
2022-10-07T01:18:22.858Z,11.50
2022-10-07T01:23:56.201Z,11.50
2022-10-07T01:29:27.474Z,11.50
2022-10-07T01:37:08.837Z,11.40
2022-10-07T01:39:43.596Z,10.60
2022-10-07T01:42:13.641Z,11.40
2022-10-07T01:44:42.742Z,11.40
2022-10-07T01:47:13.116Z,11.40
2022-10-07T01:49:42.476Z,11.40
2022-10-07T01:52:40.935Z,11.40
2022-10-07T01:55:32.925Z,11.30
2022-10-07T01:58:19.069Z,11.40
2022-10-07T02:01:00.550Z,11.30
2022-10-07T02:04:09.885Z,11.20
2022-10-07T02:06:50.727Z,11.20
2022-10-07T02:09:32.793Z,11.20
2022-10-07T02:12:14.033Z,11.20
2022-10-07T02:14:56.617Z,11.20
2022-10-07T02:17:36.438Z,11.10
2022-10-07T02:20:11.898Z,11.10
2022-10-07T02:22:44.486Z,11.10
2022-10-07T02:25:16.440Z,11.00
2022-10-07T02:27:51.511Z,10.90
2022-10-07T02:30:24.262Z,11.00
2022-10-07T02:32:58.345Z,10.80
2022-10-07T02:35:38.025Z,10.80
2022-10-07T02:38:12.770Z,9.60
2022-10-07T02:40:51.148Z,10.70
2022-10-07T02:43:30.972Z,10.70
2022-10-07T02:46:10.194Z,10.70
2022-10-07T02:48:46.283Z,10.60
2022-10-07T02:51:22.683Z,10.50
2022-10-07T02:53:56.316Z,10.50
2022-10-07T02:56:27.645Z,10.50
2022-10-07T02:58:57.673Z,10.30
2022-10-07T03:01:35.336Z,10.40
2022-10-07T03:04:03.892Z,10.40
2022-10-07T03:06:32.571Z,10.40
2022-10-07T03:09:04.041Z,10.40
2022-10-07T03:11:32.727Z,10.50
2022-10-07T03:14:01.720Z,10.50
2022-10-07T03:16:32.394Z,10.50
2022-10-07T03:19:01.380Z,10.50
2022-10-07T03:21:36.043Z,10.50
2022-10-07T03:26:41.049Z,8.50
2022-10-07T03:29:10.431Z,10.70
2022-10-07T03:31:42.888Z,10.70
2022-10-07T03:34:12.164Z,10.70
2022-10-07T03:36:43.472Z,10.70
2022-10-07T03:39:12.868Z,10.70
2022-10-07T03:44:11.433Z,10.80
2022-10-07T03:49:10.075Z,10.80
2022-10-07T03:51:38.558Z,10.80
2022-10-07T03:54:09.294Z,14.80
2022-10-07T03:56:38.743Z,10.90
2022-10-07T03:59:07.057Z,10.90
2022-10-07T04:01:37.342Z,10.90
2022-10-07T04:04:07.623Z,10.90
2022-10-07T04:06:38.899Z,10.90
2022-10-07T04:09:13.225Z,11.00
2022-10-07T04:11:42.147Z,10.90
2022-10-07T04:14:11.337Z,10.90
2022-10-07T04:19:14.249Z,10.90
2022-10-07T04:21:44.401Z,10.90
2022-10-07T04:24:13.149Z,10.90
2022-10-07T04:31:39.394Z,10.90
2022-10-07T04:34:08.545Z,11.00
2022-10-07T04:36:44.023Z,11.00
2022-10-07T04:41:52.083Z,11.00
2022-10-07T04:47:00.851Z,11.00
2022-10-07T04:49:31.769Z,11.00
2022-10-07T04:52:03.425Z,11.00
2022-10-07T04:54:36.665Z,11.10
2022-10-07T04:57:05.174Z,11.10
2022-10-07T04:59:34.526Z,11.10
2022-10-07T05:02:03.617Z,11.10
2022-10-07T05:04:35.304Z,11.20
2022-10-07T05:07:06.284Z,11.20
2022-10-07T05:09:37.010Z,11.20
2022-10-07T05:12:06.242Z,11.20
2022-10-07T05:14:34.885Z,11.20
2022-10-07T05:19:36.237Z,11.30
2022-10-07T05:24:34.938Z,11.30
2022-10-07T05:27:04.189Z,11.30
2022-10-07T05:29:32.493Z,11.30
2022-10-07T05:32:04.855Z,11.30
2022-10-07T05:34:34.583Z,11.30
2022-10-07T05:37:02.912Z,11.30
2022-10-07T05:39:32.946Z,11.30
2022-10-07T05:42:08.242Z,11.60
2022-10-07T05:44:43.356Z,11.10
2022-10-07T05:47:14.130Z,11.40
2022-10-07T05:52:11.877Z,11.30
2022-10-07T05:54:42.981Z,11.30
2022-10-07T05:57:12.534Z,11.40
2022-10-07T05:59:42.257Z,11.40
2022-10-07T06:02:16.232Z,11.30
2022-10-07T06:04:47.972Z,11.40
2022-10-07T06:07:21.428Z,11.40
2022-10-07T06:10:11.234Z,11.50
2022-10-07T06:12:57.775Z,11.40
2022-10-07T06:17:54.792Z,11.50
2022-10-07T06:20:23.697Z,11.50
2022-10-07T06:22:55.428Z,11.50
2022-10-07T06:25:25.120Z,11.50
2022-10-07T06:27:56.479Z,11.40
2022-10-07T06:32:57.147Z,11.60
2022-10-07T06:37:55.845Z,11.70
2022-10-07T06:40:26.679Z,11.70
2022-10-07T06:42:55.107Z,11.70
2022-10-07T06:45:33.159Z,11.80
2022-10-07T06:48:02.541Z,11.80
2022-10-07T06:50:32.135Z,11.90
2022-10-07T06:55:33.886Z,12.10
2022-10-07T06:58:06.337Z,12.10
2022-10-07T07:00:38.362Z,12.30
2022-10-07T07:05:42.874Z,12.40
2022-10-07T07:08:17.366Z,12.50
2022-10-07T07:10:48.489Z,12.60
2022-10-07T07:13:18.269Z,11.90
2022-10-07T07:16:00.276Z,12.80
2022-10-07T07:21:07.781Z,13.10
2022-10-07T07:23:36.721Z,13.20
2022-10-07T07:26:06.544Z,13.30
2022-10-07T07:28:36.733Z,13.40
2022-10-07T07:31:09.513Z,13.60
2022-10-07T07:33:39.363Z,13.70
2022-10-07T07:36:16.551Z,13.80
2022-10-07T07:38:53.178Z,13.90
2022-10-07T07:43:59.363Z,14.00
2022-10-07T07:46:33.337Z,14.00
2022-10-07T07:49:01.806Z,14.00
2022-10-07T07:51:30.765Z,14.10
2022-10-07T07:53:59.794Z,14.20
2022-10-07T07:56:31.989Z,14.20
2022-10-07T07:59:02.214Z,14.30
2022-10-07T08:01:32.480Z,14.70
2022-10-07T08:04:01.639Z,14.20
2022-10-07T08:06:31.413Z,14.40
2022-10-07T08:09:01.040Z,14.60
2022-10-07T08:11:33.377Z,14.70
2022-10-07T08:14:04.417Z,14.90
2022-10-07T08:16:36.833Z,15.10
2022-10-07T08:19:06.762Z,15.20
2022-10-07T08:21:35.491Z,15.10
2022-10-07T08:24:08.300Z,15.30
2022-10-07T08:26:41.842Z,15.20
2022-10-07T08:29:15.396Z,15.30
2022-10-07T08:31:45.226Z,15.30
2022-10-07T08:34:13.793Z,15.40
2022-10-07T08:39:16.923Z,15.90
2022-10-07T08:42:05.844Z,16.10
2022-10-07T08:44:40.942Z,16.40
2022-10-07T08:47:23.899Z,17.60
2022-10-07T08:50:18.136Z,18.90
2022-10-07T08:52:53.668Z,19.90
2022-10-07T08:55:35.868Z,20.70
2022-10-07T08:58:36.974Z,21.30
2022-10-07T09:01:25.712Z,21.90
2022-10-07T09:04:10.707Z,22.00
2022-10-07T09:06:44.988Z,22.20
2022-10-07T09:11:50.642Z,22.60
2022-10-07T09:14:30.555Z,22.30
2022-10-07T09:17:08.792Z,22.60
2022-10-07T09:19:45.046Z,22.50
2022-10-07T09:22:21.409Z,22.60
2022-10-07T09:24:56.512Z,22.50
2022-10-07T09:27:26.763Z,22.40
2022-10-07T09:29:57.656Z,22.30
2022-10-07T09:32:26.159Z,22.40
2022-10-07T09:34:56.764Z,22.50
2022-10-07T09:37:27.788Z,22.70
2022-10-07T09:40:18.031Z,23.10
2022-10-07T09:42:46.918Z,23.60
2022-10-07T09:45:27.600Z,23.60
2022-10-07T09:48:00.508Z,24.00
2022-10-07T09:50:38.101Z,23.70
2022-10-07T09:53:17.739Z,23.60
2022-10-07T09:55:46.315Z,24.00
2022-10-07T09:58:28.852Z,24.00
2022-10-07T10:01:02.405Z,24.00
2022-10-07T10:03:33.491Z,23.50
2022-10-07T10:06:04.482Z,23.60
2022-10-07T10:08:37.041Z,23.30
2022-10-07T10:11:25.872Z,23.30
2022-10-07T10:13:54.853Z,23.80
2022-10-07T10:16:36.247Z,24.10
2022-10-07T10:19:07.335Z,23.90
2022-10-07T10:21:41.002Z,23.30
2022-10-07T10:27:01.574Z,23.30
2022-10-07T10:29:51.625Z,22.90
2022-10-07T10:33:15.801Z,23.30
2022-10-07T10:35:57.203Z,24.00
2022-10-07T10:38:52.024Z,24.40
2022-10-07T10:41:31.690Z,24.80
2022-10-07T10:44:44.488Z,24.70
2022-10-07T10:47:25.648Z,25.10
2022-10-07T10:50:17.479Z,25.50
2022-10-07T10:53:03.934Z,25.60
2022-10-07T10:56:17.215Z,25.60
2022-10-07T10:59:03.896Z,26.20
2022-10-07T11:01:38.135Z,25.90
2022-10-07T11:04:30.704Z,25.70
2022-10-07T11:07:09.352Z,25.60
2022-10-07T11:09:44.532Z,25.30
2022-10-07T11:12:26.221Z,25.40
2022-10-07T11:15:03.778Z,25.10
2022-10-07T11:17:37.638Z,25.20
2022-10-07T11:20:20.219Z,25.10
2022-10-07T11:22:58.055Z,25.00
2022-10-07T11:25:35.128Z,25.30
2022-10-07T11:28:17.176Z,25.60
2022-10-07T11:30:55.861Z,26.20
2022-10-07T11:33:35.016Z,26.70
2022-10-07T11:36:14.209Z,26.90
2022-10-07T11:38:45.269Z,27.50
2022-10-07T11:41:21.266Z,27.40
2022-10-07T11:43:55.744Z,27.50
2022-10-07T11:46:33.087Z,27.40
2022-10-07T11:49:07.501Z,27.40
2022-10-07T11:51:40.143Z,26.90
2022-10-07T11:54:16.483Z,26.20
2022-10-07T11:56:50.641Z,25.60
2022-10-07T11:59:44.528Z,24.90
2022-10-07T12:02:46.111Z,24.40
2022-10-07T12:05:58.928Z,24.20
2022-10-07T12:08:36.755Z,24.00
2022-10-07T12:11:48.389Z,23.60
2022-10-07T12:14:41.406Z,23.30
2022-10-07T12:17:28.224Z,24.60
2022-10-07T12:20:45.216Z,25.20
2022-10-07T12:24:10.951Z,25.60
2022-10-07T12:26:48.578Z,26.70
2022-10-07T12:29:58.499Z,26.90
2022-10-07T12:32:57.980Z,27.30
2022-10-07T12:35:54.532Z,27.10
2022-10-07T12:38:27.605Z,26.20
2022-10-07T12:41:25.594Z,24.90
2022-10-07T12:44:04.528Z,24.20
2022-10-07T12:46:42.579Z,23.20
2022-10-07T12:49:22.015Z,22.50
2022-10-07T12:51:54.666Z,22.10
2022-10-07T12:54:33.716Z,21.70
2022-10-07T12:57:03.899Z,21.40
2022-10-07T12:59:55.136Z,21.40
2022-10-07T13:03:36.606Z,21.40
2022-10-07T13:06:51.834Z,21.40
2022-10-07T13:10:04.381Z,21.20
2022-10-07T13:12:46.715Z,21.30
2022-10-07T13:15:31.397Z,21.30
2022-10-07T13:18:14.051Z,21.10
2022-10-07T13:21:02.591Z,21.00
2022-10-07T13:23:32.737Z,20.90
2022-10-07T13:26:02.816Z,21.00
2022-10-07T13:28:48.374Z,21.10
2022-10-07T13:31:23.241Z,21.10
2022-10-07T13:33:53.772Z,21.20
2022-10-07T13:36:26.003Z,21.00
2022-10-07T13:39:11.083Z,21.00
2022-10-07T13:41:44.258Z,20.50
2022-10-07T13:46:59.957Z,20.30
2022-10-07T13:49:31.923Z,20.20
2022-10-07T13:52:06.394Z,20.00
2022-10-07T13:57:07.731Z,20.00
2022-10-07T13:59:38.959Z,20.00
2022-10-07T14:04:54.455Z,20.00
2022-10-07T14:07:23.576Z,19.90
2022-10-07T14:10:04.828Z,19.90
2022-10-07T14:17:47.597Z,20.10
2022-10-07T14:25:29.916Z,20.70
2022-10-07T14:28:21.431Z,21.70
2022-10-07T14:31:42.466Z,22.40
2022-10-07T14:34:34.471Z,22.60
2022-10-07T14:37:06.017Z,22.30
2022-10-07T14:39:37.838Z,21.90
2022-10-07T14:42:12.260Z,21.80
2022-10-07T14:44:44.017Z,21.40
2022-10-07T14:47:16.306Z,21.30
2022-10-07T14:49:46.290Z,21.30
2022-10-07T14:52:22.155Z,20.90
2022-10-07T14:54:53.149Z,20.70
2022-10-07T14:57:21.621Z,20.50
2022-10-07T15:02:19.204Z,19.90
2022-10-07T15:04:50.187Z,19.80
2022-10-07T15:07:19.635Z,19.80
2022-10-07T15:12:17.718Z,19.40
2022-10-07T15:17:15.317Z,19.20
2022-10-07T15:19:43.609Z,20.20
2022-10-07T15:22:13.347Z,19.20
2022-10-07T15:24:42.294Z,19.00
2022-10-07T15:27:10.621Z,18.90
2022-10-07T15:29:40.520Z,18.80
2022-10-07T15:32:09.866Z,18.70
2022-10-07T15:34:38.177Z,18.80
2022-10-07T15:37:08.119Z,18.80
2022-10-07T15:39:39.799Z,18.80
2022-10-07T15:42:09.542Z,18.70
2022-10-07T15:44:37.849Z,18.60
2022-10-07T15:47:06.281Z,18.50
2022-10-07T15:49:36.173Z,18.30
2022-10-07T15:54:33.282Z,18.20
2022-10-07T15:57:03.284Z,18.00
2022-10-07T15:59:31.603Z,17.90
2022-10-07T16:02:00.099Z,17.70
2022-10-07T16:04:28.953Z,17.50
2022-10-07T16:06:57.282Z,17.30
2022-10-07T16:09:26.167Z,17.10
2022-10-07T16:11:54.435Z,17.00
2022-10-07T16:14:24.061Z,16.80
2022-10-07T16:16:52.358Z,16.60
2022-10-07T16:21:49.501Z,16.20
2022-10-07T16:24:21.437Z,16.10
2022-10-07T16:26:51.520Z,16.00
2022-10-07T16:29:39.457Z,15.90
2022-10-07T16:32:11.792Z,15.80
2022-10-07T16:34:43.289Z,15.70
2022-10-07T16:37:12.833Z,15.60
2022-10-07T16:39:41.140Z,15.60
2022-10-07T16:44:38.803Z,15.60
2022-10-07T16:47:08.491Z,15.50
2022-10-07T16:49:36.897Z,15.50
2022-10-07T16:52:06.466Z,15.40
2022-10-07T16:54:35.488Z,15.30
2022-10-07T16:57:04.084Z,15.00
2022-10-07T17:02:03.193Z,14.80
2022-10-07T17:04:33.245Z,14.70
2022-10-07T17:07:02.063Z,14.50
2022-10-07T17:09:30.437Z,13.90
2022-10-07T17:11:59.518Z,14.30
2022-10-07T17:17:00.514Z,14.10
2022-10-07T17:19:30.260Z,14.00
2022-10-07T17:22:00.959Z,14.00
2022-10-07T17:24:30.049Z,13.90
2022-10-07T17:26:58.640Z,13.80
2022-10-07T17:29:27.170Z,10.90
2022-10-07T17:31:56.478Z,13.70
2022-10-07T17:34:25.031Z,13.70
2022-10-07T17:36:54.182Z,13.70
2022-10-07T17:46:51.065Z,13.40
2022-10-07T17:49:19.719Z,13.50
2022-10-07T17:51:48.332Z,13.50
2022-10-07T17:54:17.034Z,13.50
2022-10-07T17:59:19.778Z,13.40
2022-10-07T18:01:48.348Z,13.40
2022-10-07T18:04:23.883Z,13.30
2022-10-07T18:09:24.185Z,12.70
2022-10-07T18:12:11.476Z,13.30
2022-10-07T18:24:57.115Z,13.10
2022-10-07T18:29:56.981Z,13.40
2022-10-07T18:32:26.398Z,13.60
2022-10-07T18:34:54.931Z,13.20
2022-10-07T18:37:23.998Z,13.80
2022-10-07T18:39:52.913Z,13.80
2022-10-07T18:42:21.475Z,13.80
2022-10-07T18:44:52.408Z,13.60
2022-10-07T18:47:21.409Z,13.50
2022-10-07T18:49:51.724Z,13.30
2022-10-07T18:59:46.796Z,13.30
2022-10-07T19:02:17.227Z,11.10
2022-10-07T19:07:14.590Z,13.40
2022-10-07T19:09:42.926Z,13.40
2022-10-07T19:14:54.196Z,13.20
2022-10-07T19:19:53.198Z,12.80
2022-10-07T19:22:21.848Z,12.70
2022-10-07T19:25:07.891Z,12.60
2022-10-07T19:27:37.036Z,12.50
2022-10-07T19:30:06.527Z,12.40
2022-10-07T19:32:36.288Z,12.30
2022-10-07T19:35:06.252Z,12.30
2022-10-07T19:37:34.839Z,12.20
2022-10-07T19:40:03.303Z,12.10
2022-10-07T19:42:31.746Z,12.10
2022-10-07T19:45:00.187Z,12.10
2022-10-07T19:49:58.569Z,11.90
2022-10-07T19:52:27.444Z,11.70
2022-10-07T19:54:55.999Z,11.60
2022-10-07T19:57:24.458Z,11.60
2022-10-07T19:59:52.741Z,11.50
2022-10-07T20:02:21.188Z,11.40
2022-10-07T20:07:20.201Z,11.30
2022-10-07T20:09:48.501Z,11.30
2022-10-07T20:12:16.811Z,11.30
2022-10-07T20:14:45.429Z,11.20
2022-10-07T20:17:13.730Z,11.20
2022-10-07T20:19:42.247Z,11.30
2022-10-07T20:24:41.519Z,11.30
2022-10-07T20:27:10.049Z,11.20
2022-10-07T20:29:57.091Z,11.50
2022-10-07T20:34:55.505Z,11.10
2022-10-07T20:37:24.199Z,11.20
2022-10-07T20:40:11.710Z,11.10
2022-10-07T20:42:45.981Z,11.10
2022-10-07T20:50:14.770Z,11.10
2022-10-07T20:52:45.526Z,11.10
2022-10-07T20:55:15.755Z,10.90
2022-10-07T21:05:15.148Z,10.70
2022-10-07T21:07:43.636Z,10.60
2022-10-07T21:12:42.267Z,10.60
2022-10-07T21:15:11.814Z,10.50
2022-10-07T21:22:41.530Z,10.20
2022-10-07T21:25:11.831Z,10.20
2022-10-07T21:27:42.509Z,10.20
2022-10-07T21:30:11.870Z,10.10
2022-10-07T21:32:40.175Z,10.10
2022-10-07T21:35:10.101Z,10.00
2022-10-07T21:37:38.741Z,10.10
2022-10-07T21:42:36.723Z,10.10
2022-10-07T21:45:08.071Z,10.20
2022-10-07T21:47:36.360Z,9.30
2022-10-07T21:50:04.990Z,10.20
2022-10-07T21:52:33.298Z,10.30
2022-10-07T21:55:01.652Z,10.30
2022-10-07T21:57:29.925Z,10.30
2022-10-07T21:59:58.215Z,10.30
2022-10-07T22:02:29.287Z,10.30
2022-10-07T22:04:57.756Z,10.40
2022-10-07T22:07:43.519Z,10.40
2022-10-07T22:15:11.287Z,10.40
2022-10-07T22:22:38.987Z,10.40
2022-10-07T22:25:08.876Z,10.40
2022-10-07T22:27:37.187Z,10.20
2022-10-07T22:30:08.194Z,10.20
2022-10-07T22:32:36.485Z,9.90
2022-10-07T22:35:24.706Z,10.10
2022-10-07T22:42:52.715Z,10.00
2022-10-07T22:45:20.989Z,10.10
2022-10-07T22:47:51.092Z,10.10
2022-10-07T22:50:20.718Z,10.10
2022-10-07T22:52:49.381Z,10.10
2022-10-07T22:55:21.275Z,10.20
2022-10-07T22:57:49.584Z,10.20
2022-10-07T23:00:18.346Z,10.20
2022-10-07T23:02:47.373Z,10.20
2022-10-07T23:05:16.115Z,10.20
2022-10-07T23:07:45.711Z,10.10
2022-10-07T23:10:14.037Z,10.10
2022-10-07T23:12:42.394Z,10.00
2022-10-07T23:15:11.800Z,11.20
2022-10-07T23:17:40.090Z,10.00
2022-10-07T23:20:09.492Z,10.10
2022-10-07T23:22:40.088Z,10.10
2022-10-07T23:25:10.538Z,10.10
2022-10-07T23:30:11.176Z,10.20
2022-10-07T23:32:39.455Z,10.10
2022-10-07T23:35:08.922Z,9.80
2022-10-07T23:37:37.242Z,10.10
2022-10-07T23:40:06.917Z,10.10
2022-10-07T23:42:36.862Z,10.10
2022-10-07T23:45:06.104Z,10.10
2022-10-07T23:47:34.413Z,10.00
2022-10-07T23:50:02.727Z,10.00
2022-10-07T23:52:33.378Z,9.90
2022-10-07T23:55:01.739Z,10.00
